createdAt,value
2023-01-13T00:54:25.745Z,558.00
2023-01-13T00:55:26.711Z,559.00
2023-01-13T00:56:39.615Z,560.00
2023-01-13T00:57:26.685Z,562.00
2023-01-13T00:58:26.685Z,562.00
2023-01-13T00:59:26.666Z,559.00
2023-01-13T01:00:26.663Z,561.00
2023-01-13T01:01:26.785Z,560.00
2023-01-13T01:02:26.684Z,557.00
2023-01-13T01:03:26.635Z,560.00
2023-01-13T01:04:26.621Z,559.00
2023-01-13T01:05:26.613Z,559.00
2023-01-13T01:06:26.618Z,559.00
2023-01-13T01:07:26.597Z,555.00
2023-01-13T01:08:26.589Z,554.00
2023-01-13T01:09:26.572Z,554.00
2023-01-13T01:10:26.587Z,552.00
2023-01-13T01:11:26.586Z,554.00
2023-01-13T01:12:26.560Z,555.00
2023-01-13T01:13:26.547Z,553.00
2023-01-13T01:14:26.532Z,553.00
2023-01-13T01:15:26.525Z,552.00
2023-01-13T01:16:26.619Z,552.00
2023-01-13T01:17:26.506Z,547.00
2023-01-13T01:18:26.512Z,546.00
2023-01-13T01:19:26.484Z,546.00
2023-01-13T01:20:26.491Z,547.00
2023-01-13T01:21:26.477Z,551.00
2023-01-13T01:22:26.516Z,547.00
2023-01-13T01:23:26.456Z,545.00
2023-01-13T01:24:26.455Z,542.00
2023-01-13T01:25:26.431Z,540.00
2023-01-13T01:26:26.465Z,540.00
2023-01-13T01:27:26.412Z,539.00
2023-01-13T01:28:26.408Z,540.00
2023-01-13T01:29:26.409Z,541.00
2023-01-13T01:30:26.393Z,542.00
2023-01-13T01:31:26.436Z,544.00
2023-01-13T01:32:26.369Z,544.00
2023-01-13T01:33:26.363Z,547.00
2023-01-13T01:34:26.354Z,546.00
2023-01-13T01:35:26.341Z,544.00
2023-01-13T01:36:26.337Z,542.00
2023-01-13T01:37:26.328Z,541.00
2023-01-13T01:38:26.326Z,540.00
2023-01-13T01:39:26.323Z,540.00
2023-01-13T01:40:26.302Z,540.00
2023-01-13T01:41:26.293Z,540.00
2023-01-13T01:42:26.308Z,540.00
2023-01-13T01:43:26.280Z,538.00
2023-01-13T01:44:26.272Z,537.00
2023-01-13T01:45:26.258Z,539.00
2023-01-13T01:46:26.292Z,539.00
2023-01-13T01:47:26.236Z,539.00
2023-01-13T01:48:26.227Z,539.00
2023-01-13T01:49:26.223Z,538.00
2023-01-13T01:50:26.223Z,538.00
2023-01-13T01:51:26.206Z,535.00
2023-01-13T01:52:26.213Z,537.00
2023-01-13T01:53:26.181Z,535.00
2023-01-13T01:54:26.173Z,538.00
2023-01-13T01:55:26.177Z,536.00
2023-01-13T01:56:26.158Z,539.00
2023-01-13T01:57:26.147Z,540.00
2023-01-13T01:58:26.164Z,537.00
2023-01-13T01:59:26.128Z,538.00
2023-01-13T02:00:26.117Z,538.00
2023-01-13T02:01:26.229Z,535.00
2023-01-13T02:02:26.210Z,534.00
2023-01-13T02:03:26.103Z,536.00
2023-01-13T02:04:26.084Z,532.00
2023-01-13T02:05:26.073Z,527.00
2023-01-13T02:06:26.107Z,526.00
2023-01-13T02:07:26.056Z,526.00
2023-01-13T02:08:26.048Z,526.00
2023-01-13T02:09:26.033Z,524.00
2023-01-13T02:10:26.031Z,526.00
2023-01-13T02:11:26.019Z,524.00
2023-01-13T02:12:26.016Z,524.00
2023-01-13T02:13:25.999Z,525.00
2023-01-13T02:14:26.010Z,527.00
2023-01-13T02:15:25.980Z,528.00
2023-01-13T02:16:26.050Z,527.00
2023-01-13T02:17:25.969Z,523.00
2023-01-13T02:18:25.962Z,525.00
2023-01-13T02:19:25.946Z,525.00
2023-01-13T02:20:25.928Z,523.00
2023-01-13T02:21:25.925Z,524.00
2023-01-13T02:22:25.911Z,525.00
2023-01-13T02:23:25.909Z,525.00
2023-01-13T02:24:25.897Z,529.00
2023-01-13T02:25:25.897Z,528.00
2023-01-13T02:26:25.878Z,530.00
2023-01-13T02:27:25.872Z,530.00
2023-01-13T02:28:25.868Z,529.00
2023-01-13T02:29:25.847Z,530.00
2023-01-13T02:30:25.861Z,528.00
2023-01-13T02:31:25.951Z,527.00
2023-01-13T02:32:25.825Z,527.00
2023-01-13T02:33:25.816Z,525.00
2023-01-13T02:34:25.810Z,523.00
2023-01-13T02:35:25.798Z,522.00
2023-01-13T02:36:25.794Z,522.00
2023-01-13T02:37:25.772Z,521.00
2023-01-13T02:38:25.785Z,522.00
2023-01-13T02:39:25.763Z,522.00
2023-01-13T02:40:25.749Z,522.00
2023-01-13T02:41:25.749Z,523.00
2023-01-13T02:42:25.731Z,520.00
2023-01-13T02:43:25.724Z,521.00
2023-01-13T02:44:25.710Z,521.00
2023-01-13T02:45:25.775Z,523.00
2023-01-13T02:46:25.716Z,526.00
2023-01-13T02:47:25.695Z,524.00
2023-01-13T02:48:25.678Z,519.00
2023-01-13T02:49:25.671Z,521.00
2023-01-13T02:50:25.663Z,518.00
2023-01-13T02:51:25.687Z,518.00
2023-01-13T02:52:25.643Z,518.00
2023-01-13T02:53:25.632Z,525.00
2023-01-13T02:54:25.622Z,525.00
2023-01-13T02:55:25.618Z,524.00
2023-01-13T02:56:25.608Z,523.00
2023-01-13T02:57:25.604Z,523.00
2023-01-13T02:58:25.591Z,521.00
2023-01-13T02:59:25.578Z,520.00
2023-01-13T03:00:25.641Z,521.00
2023-01-13T03:01:25.694Z,523.00
2023-01-13T03:02:25.615Z,525.00
2023-01-13T03:03:25.548Z,526.00
2023-01-13T03:04:25.541Z,526.00
2023-01-13T03:05:25.528Z,525.00
2023-01-13T03:06:25.520Z,521.00
2023-01-13T03:07:25.515Z,519.00
2023-01-13T03:08:25.512Z,519.00
2023-01-13T03:09:25.496Z,517.00
2023-01-13T03:10:25.531Z,518.00
2023-01-13T03:11:25.489Z,517.00
2023-01-13T03:12:25.475Z,522.00
2023-01-13T03:13:25.460Z,520.00
2023-01-13T03:14:25.456Z,519.00
2023-01-13T03:15:25.446Z,521.00
2023-01-13T03:16:25.487Z,522.00
2023-01-13T03:17:25.429Z,524.00
2023-01-13T03:18:25.484Z,523.00
2023-01-13T03:19:25.406Z,524.00
2023-01-13T03:20:25.400Z,525.00
2023-01-13T03:21:25.397Z,524.00
2023-01-13T03:22:25.381Z,523.00
2023-01-13T03:23:25.374Z,521.00
2023-01-13T03:24:25.365Z,520.00
2023-01-13T03:25:25.364Z,521.00
2023-01-13T04:18:24.876Z,512.00
2023-01-13T04:47:24.612Z,504.00
2023-01-13T05:32:24.200Z,501.00
2023-01-13T06:30:23.701Z,547.00
2023-01-13T06:42:22.580Z,569.00
2023-01-13T06:58:23.468Z,615.00
2023-01-13T06:59:23.402Z,611.00
2023-01-13T07:15:23.517Z,921.00
2023-01-13T07:45:22.988Z,1044.00
2023-01-13T07:48:22.976Z,1041.00
2023-01-13T07:51:22.925Z,1035.00
2023-01-13T07:53:22.984Z,1028.00
2023-01-13T07:56:22.979Z,1024.00
2023-01-13T07:59:22.982Z,1017.00
2023-01-13T08:10:23.162Z,1001.00
2023-01-13T08:29:22.621Z,974.00
2023-01-13T08:39:22.600Z,953.00
2023-01-13T08:40:21.484Z,955.00
2023-01-13T08:41:22.468Z,955.00
2023-01-13T08:44:22.518Z,946.00
2023-01-13T08:48:22.603Z,941.00
2023-01-13T08:50:22.412Z,941.00
2023-01-13T08:53:22.537Z,940.00
2023-01-13T09:11:22.550Z,935.00
2023-01-13T09:30:22.051Z,928.00
2023-01-13T09:37:22.054Z,924.00
2023-01-13T09:42:22.135Z,914.00
2023-01-13T09:47:22.068Z,909.00
2023-01-13T09:49:21.880Z,909.00
2023-01-13T09:51:22.061Z,907.00
2023-01-13T09:57:22.066Z,895.00
2023-01-13T09:58:21.896Z,898.00
2023-01-13T10:13:21.655Z,890.00
2023-01-13T10:24:21.522Z,881.00
2023-01-13T10:26:21.611Z,879.00
2023-01-13T10:28:21.486Z,878.00
2023-01-13T10:29:21.489Z,877.00
2023-01-13T10:30:21.623Z,878.00
2023-01-13T10:31:21.545Z,879.00
2023-01-13T10:32:21.443Z,879.00
2023-01-13T10:33:21.454Z,882.00
2023-01-13T10:34:21.434Z,885.00
2023-01-13T10:35:21.543Z,896.00
2023-01-13T10:36:21.571Z,904.00
2023-01-13T10:37:21.556Z,915.00
2023-01-13T10:40:21.375Z,923.00
2023-01-13T10:41:21.371Z,930.00
2023-01-13T10:42:21.555Z,934.00
2023-01-13T10:43:21.345Z,963.00
2023-01-13T10:44:21.348Z,973.00
2023-01-13T10:45:21.351Z,980.00
2023-01-13T10:47:21.565Z,1009.00
2023-01-13T10:48:21.334Z,1019.00
2023-01-13T10:50:21.302Z,1035.00
2023-01-13T10:51:21.299Z,1042.00
2023-01-13T10:54:21.305Z,1065.00
2023-01-13T10:56:21.585Z,1079.00
2023-01-13T10:57:21.238Z,1087.00
2023-01-13T11:00:21.487Z,1119.00
2023-01-13T11:01:21.727Z,1126.00
2023-01-13T11:03:21.205Z,1146.00
2023-01-13T11:05:21.180Z,1161.00
2023-01-13T11:06:21.170Z,1165.00
2023-01-13T11:07:21.137Z,1173.00
2023-01-13T11:11:36.722Z,1222.00
2023-01-13T11:14:21.119Z,1242.00
2023-01-13T11:15:21.124Z,1247.00
2023-01-13T11:16:21.234Z,1257.00
2023-01-13T11:17:21.084Z,1271.00
2023-01-13T11:19:21.254Z,1283.00
2023-01-13T11:20:21.062Z,1290.00
2023-01-13T11:21:21.062Z,1286.00
2023-01-13T11:22:21.100Z,1286.00
2023-01-13T11:23:21.092Z,1287.00
2023-01-13T11:24:20.993Z,1288.00
2023-01-13T11:25:20.976Z,1283.00
2023-01-13T11:26:20.976Z,1272.00
2023-01-13T11:27:20.975Z,1259.00
2023-01-13T11:28:21.075Z,1252.00
2023-01-13T11:29:20.952Z,1246.00
2023-01-13T11:30:20.948Z,1244.00
2023-01-13T11:31:20.998Z,1238.00
2023-01-13T11:32:20.919Z,1238.00
2023-01-13T11:33:20.913Z,1237.00
2023-01-13T11:34:20.937Z,1236.00
2023-01-13T11:35:20.914Z,1239.00
2023-01-13T11:36:20.964Z,1238.00
2023-01-13T11:38:20.856Z,1233.00
2023-01-13T11:39:21.083Z,1225.00
2023-01-13T11:40:20.847Z,1223.00
2023-01-13T11:41:21.089Z,1222.00
2023-01-13T11:42:21.088Z,1221.00
2023-01-13T11:43:20.837Z,1216.00
2023-01-13T11:44:20.804Z,1216.00
2023-01-13T11:45:20.795Z,1211.00
2023-01-13T11:46:20.823Z,1208.00
2023-01-13T11:47:21.139Z,1208.00
2023-01-13T11:48:20.768Z,1205.00
2023-01-13T11:49:22.401Z,1201.00
2023-01-13T11:50:20.785Z,1028.00
2023-01-13T11:51:20.743Z,901.00
2023-01-13T11:52:21.092Z,859.00
2023-01-13T11:53:20.720Z,768.00
2023-01-13T11:54:21.088Z,704.00
2023-01-13T11:55:22.652Z,703.00
2023-01-13T11:56:20.721Z,735.00
2023-01-13T11:57:20.687Z,720.00
2023-01-13T11:58:20.685Z,684.00
2023-01-13T11:59:20.670Z,673.00
2023-01-13T12:00:20.682Z,686.00
2023-01-13T12:01:23.279Z,701.00
2023-01-13T12:02:20.701Z,787.00
2023-01-13T12:03:20.731Z,814.00
2023-01-13T12:05:20.623Z,902.00
2023-01-13T12:06:20.634Z,974.00
2023-01-13T12:07:23.021Z,995.00
2023-01-13T12:08:20.596Z,1011.00
2023-01-13T12:09:20.605Z,1017.00
2023-01-13T12:10:20.564Z,1024.00
2023-01-13T12:11:20.560Z,1057.00
2023-01-13T12:12:20.559Z,1075.00
2023-01-13T12:13:20.573Z,1095.00
2023-01-13T12:14:20.595Z,1112.00
2023-01-13T12:16:20.592Z,1142.00
2023-01-13T12:17:20.495Z,1152.00
2023-01-13T12:18:20.499Z,1166.00
2023-01-13T12:19:20.600Z,1185.00
2023-01-13T12:20:20.488Z,1201.00
2023-01-13T12:21:20.472Z,1219.00
2023-01-13T12:22:20.482Z,1230.00
2023-01-13T12:23:20.479Z,1238.00
2023-01-13T12:24:20.625Z,1251.00
2023-01-13T12:25:20.626Z,1264.00
2023-01-13T12:26:20.422Z,1271.00
2023-01-13T12:27:20.418Z,1285.00
2023-01-13T12:28:20.476Z,1295.00
2023-01-13T12:29:20.414Z,1303.00
2023-01-13T12:30:20.382Z,1311.00
2023-01-13T12:31:20.439Z,1323.00
2023-01-13T12:32:20.359Z,1341.00
2023-01-13T12:33:20.352Z,1355.00
2023-01-13T12:34:20.612Z,1381.00
2023-01-13T12:35:20.364Z,1398.00
2023-01-13T12:36:20.330Z,1462.00
2023-01-13T12:37:20.325Z,1470.00
2023-01-13T12:38:20.393Z,1479.00
2023-01-13T12:39:20.294Z,1484.00
2023-01-13T12:40:20.293Z,1496.00
2023-01-13T12:41:20.288Z,1499.00
2023-01-13T12:42:20.276Z,1509.00
2023-01-13T12:43:20.266Z,1520.00
2023-01-13T12:44:20.260Z,1542.00
2023-01-13T12:45:20.244Z,1559.00
2023-01-13T12:46:20.236Z,1575.00
2023-01-13T12:47:20.226Z,1583.00
2023-01-13T12:48:20.217Z,1585.00
2023-01-13T12:49:20.227Z,1587.00
2023-01-13T12:50:20.207Z,1598.00
2023-01-13T12:51:20.198Z,1610.00
2023-01-13T12:52:20.181Z,1629.00
2023-01-13T12:53:20.188Z,1643.00
2023-01-13T12:55:20.167Z,1673.00
2023-01-13T12:56:20.153Z,1686.00
2023-01-13T12:57:20.141Z,1527.00
2023-01-13T12:58:20.135Z,1434.00
2023-01-13T12:59:20.121Z,1289.00
2023-01-13T13:00:20.120Z,1181.00
2023-01-13T13:01:20.185Z,1074.00
2023-01-13T13:02:20.298Z,930.00
2023-01-13T13:03:20.091Z,977.00
2023-01-13T13:04:20.103Z,784.00
2023-01-13T13:05:20.116Z,775.00
2023-01-13T13:06:20.114Z,750.00
2023-01-13T13:07:20.112Z,738.00
2023-01-13T13:08:20.044Z,725.00
2023-01-13T13:09:20.062Z,723.00
2023-01-13T13:10:20.054Z,713.00
2023-01-13T13:11:20.119Z,713.00
2023-01-13T13:12:20.019Z,706.00
2023-01-13T13:13:20.021Z,703.00
2023-01-13T13:14:19.994Z,765.00
2023-01-13T13:15:20.043Z,812.00
2023-01-13T13:16:20.050Z,857.00
2023-01-13T13:17:19.998Z,899.00
2023-01-13T13:18:19.957Z,956.00
2023-01-13T13:19:19.955Z,989.00
2023-01-13T13:20:19.945Z,1006.00
2023-01-13T13:21:19.924Z,1025.00
2023-01-13T13:22:19.920Z,1040.00
2023-01-13T13:23:20.126Z,1047.00
2023-01-13T13:24:20.125Z,1055.00
2023-01-13T13:25:19.893Z,1093.00
2023-01-13T13:26:19.923Z,1113.00
2023-01-13T13:27:19.874Z,1117.00
2023-01-13T13:28:19.865Z,1125.00
2023-01-13T13:29:20.146Z,1139.00
2023-01-13T13:30:19.856Z,1173.00
2023-01-13T13:31:19.897Z,1193.00
2023-01-13T13:32:19.831Z,1225.00
2023-01-13T13:33:19.820Z,2366.00
2023-01-13T13:35:19.799Z,1211.00
2023-01-13T13:36:19.787Z,1203.00
2023-01-13T13:37:19.781Z,1198.00
2023-01-13T13:38:19.773Z,1188.00
2023-01-13T13:39:19.770Z,1181.00
2023-01-13T13:40:19.755Z,1148.00
2023-01-13T13:41:19.753Z,1155.00
2023-01-13T13:51:19.670Z,1354.00
2023-01-13T13:55:19.692Z,1429.00
2023-01-13T13:58:19.668Z,1463.00
2023-01-13T15:04:18.975Z,2186.00
2023-01-13T19:10:16.874Z,1296.00
2023-01-13T19:11:16.869Z,1301.00
2023-01-13T19:12:16.863Z,1303.00
2023-01-13T19:13:16.856Z,1307.00
2023-01-13T19:14:16.851Z,1312.00
2023-01-13T19:15:16.832Z,1326.00
2023-01-13T19:16:16.824Z,1339.00
2023-01-13T19:17:16.823Z,1347.00
2023-01-13T19:18:16.832Z,1356.00
2023-01-13T19:19:16.818Z,1366.00
2023-01-13T19:20:16.803Z,1375.00
2023-01-13T19:21:16.782Z,1383.00
2023-01-13T19:22:16.778Z,1390.00
2023-01-13T19:23:16.765Z,1396.00
2023-01-13T19:24:16.760Z,1403.00
2023-01-13T19:25:16.757Z,1413.00
2023-01-13T19:26:16.744Z,1427.00
2023-01-13T19:27:16.737Z,1432.00
2023-01-13T19:28:16.735Z,1448.00
2023-01-13T19:29:16.712Z,1457.00
2023-01-13T19:30:16.705Z,1460.00
2023-01-13T19:31:16.734Z,1462.00
2023-01-13T19:32:16.690Z,1468.00
2023-01-13T19:33:16.684Z,1495.00
2023-01-13T19:34:16.762Z,1494.00
2023-01-13T19:35:16.671Z,1496.00
2023-01-13T19:36:16.652Z,1503.00
2023-01-13T19:37:16.643Z,1513.00
2023-01-13T19:38:16.644Z,1520.00
2023-01-13T19:39:16.628Z,1527.00
2023-01-13T19:40:16.647Z,1540.00
2023-01-13T19:41:16.616Z,1544.00
2023-01-13T19:42:16.602Z,1552.00
2023-01-13T19:43:16.597Z,1558.00
2023-01-13T19:44:16.583Z,1563.00
2023-01-13T19:45:16.583Z,1573.00
2023-01-13T19:46:16.598Z,1578.00
2023-01-13T19:47:16.560Z,1590.00
2023-01-13T19:48:16.571Z,1608.00
2023-01-13T19:49:16.544Z,1626.00
2023-01-13T19:50:16.663Z,1623.00
2023-01-13T19:51:16.533Z,1674.00
2023-01-13T19:52:16.523Z,1662.00
2023-01-13T19:53:16.512Z,1657.00
2023-01-13T19:54:16.502Z,1653.00
2023-01-13T19:55:16.493Z,1648.00
2023-01-13T19:56:16.488Z,1648.00
2023-01-13T19:57:16.484Z,1647.00
2023-01-13T19:58:16.463Z,1630.00
2023-01-13T19:59:16.455Z,1628.00
2023-01-13T20:00:16.445Z,1627.00
2023-01-13T20:01:16.546Z,1619.00
2023-01-13T20:02:16.563Z,1609.00
2023-01-13T20:03:16.425Z,1599.00
2023-01-13T20:04:16.420Z,1583.00
2023-01-13T20:05:16.409Z,1567.00
2023-01-13T20:06:16.427Z,1567.00
2023-01-13T20:07:16.402Z,1564.00
2023-01-13T20:08:16.406Z,1557.00
2023-01-13T20:09:16.381Z,1555.00
2023-01-13T20:10:16.363Z,1555.00
2023-01-13T20:11:16.356Z,1551.00
2023-01-13T20:12:16.353Z,1549.00
2023-01-13T20:13:16.345Z,1547.00
2023-01-13T20:14:16.341Z,1541.00
2023-01-13T20:15:16.415Z,1534.00
2023-01-13T20:16:16.375Z,1536.00
2023-01-13T20:17:16.313Z,1535.00
2023-01-13T20:18:16.302Z,1532.00
2023-01-13T20:19:16.289Z,1520.00
2023-01-13T20:20:16.287Z,1521.00
2023-01-13T20:21:16.275Z,1522.00
2023-01-13T20:22:16.295Z,1514.00
2023-01-13T20:23:16.254Z,1510.00
2023-01-13T20:24:16.243Z,1505.00
2023-01-13T20:25:16.307Z,1498.00
2023-01-13T20:26:16.227Z,1497.00
2023-01-13T20:27:16.222Z,1495.00
2023-01-13T20:28:16.209Z,1494.00
2023-01-13T20:29:16.206Z,1483.00
2023-01-13T20:30:16.189Z,1483.00
2023-01-13T20:31:16.224Z,1482.00
2023-01-13T20:32:16.189Z,1477.00
2023-01-13T20:33:16.168Z,1472.00
2023-01-13T20:34:16.171Z,1468.00
2023-01-13T20:35:16.156Z,1464.00
2023-01-13T20:36:16.149Z,1463.00
2023-01-13T20:37:16.130Z,1454.00
2023-01-13T20:38:16.152Z,1449.00
2023-01-13T20:39:16.122Z,1409.00
2023-01-13T20:40:16.106Z,1413.00
2023-01-13T20:41:16.103Z,1406.00
2023-01-13T20:42:16.089Z,1408.00
2023-01-13T20:43:17.662Z,1405.00
2023-01-13T21:59:15.607Z,1167.00
2023-01-13T22:00:15.607Z,1164.00
2023-01-13T22:01:15.686Z,1158.00
2023-01-13T22:02:23.770Z,1151.00
